createdAt,value
2019-05-12T00:00:44.668Z,6.9
2019-05-12T00:01:44.771Z,7
2019-05-12T00:02:49.365Z,7.1
2019-05-12T00:03:44.952Z,7.1
2019-05-12T00:04:48.683Z,6.9
2019-05-12T00:05:52.323Z,6.9
2019-05-12T00:06:47.354Z,7
2019-05-12T00:07:45.290Z,6.9
2019-05-12T00:08:45.313Z,6.8
2019-05-12T00:09:47.417Z,6.7
2019-05-12T00:10:47.528Z,6.7
2019-05-12T00:11:45.531Z,6.8
2019-05-12T00:12:47.824Z,6.8
2019-05-12T00:13:47.799Z,6.9
2019-05-12T00:14:48.371Z,6.9
2019-05-12T00:15:47.623Z,6.7
2019-05-12T00:16:45.872Z,6.6
2019-05-12T00:17:48.043Z,6.6
2019-05-12T00:18:48.190Z,6.6
2019-05-12T00:19:47.908Z,6.7
2019-05-12T00:20:47.640Z,6.6
2019-05-12T00:21:48.257Z,6.5
2019-05-12T00:22:48.138Z,6.5
2019-05-12T00:23:47.636Z,6.4
2019-05-12T00:24:47.868Z,6.5
2019-05-12T00:25:47.975Z,6.6
2019-05-12T00:26:47.740Z,6.6
2019-05-12T00:27:48.512Z,6.5
2019-05-12T00:28:48.171Z,6.6
2019-05-12T00:29:48.511Z,6.5
2019-05-12T00:30:48.699Z,6.4
2019-05-12T00:31:47.831Z,6.4
2019-05-12T00:33:03.419Z,6.4
2019-05-12T00:33:47.999Z,6.4
2019-05-12T00:34:48.021Z,6.3
2019-05-12T00:35:48.347Z,6.2
2019-05-12T00:36:48.473Z,6.3
2019-05-12T00:37:48.600Z,6.5
2019-05-12T00:38:48.511Z,6.5
2019-05-12T00:39:47.857Z,6.5
2019-05-12T00:40:48.985Z,6.4
2019-05-12T00:41:48.369Z,6.4
2019-05-12T00:42:48.530Z,6.5
2019-05-12T00:43:49.965Z,6.6
2019-05-12T00:44:49.620Z,6.5
2019-05-12T00:45:50.028Z,6.4
2019-05-12T00:46:50.248Z,6.4
2019-05-12T00:47:50.199Z,6.3
2019-05-12T00:48:49.228Z,6.2
2019-05-12T00:49:50.345Z,6.1
2019-05-12T00:50:50.475Z,6.1
2019-05-12T00:51:48.644Z,6.1
2019-05-12T00:52:49.222Z,6.4
2019-05-12T00:53:51.486Z,6.4
2019-05-12T00:54:50.187Z,6.4
2019-05-12T00:55:48.746Z,6.4
2019-05-12T00:56:48.843Z,6.4
2019-05-12T00:57:52.177Z,6.5
2019-05-12T00:58:52.060Z,6.4
2019-05-12T00:59:49.007Z,6.4
2019-05-12T01:00:49.147Z,6.2
2019-05-12T01:01:49.214Z,6
2019-05-12T01:02:49.284Z,6
2019-05-12T01:03:49.395Z,6
2019-05-12T01:04:49.571Z,5.9
2019-05-12T01:05:49.763Z,5.8
2019-05-12T01:06:51.881Z,5.9
2019-05-12T01:07:51.178Z,6
2019-05-12T01:08:49.795Z,6
2019-05-12T01:09:49.846Z,6
2019-05-12T01:10:49.921Z,6
2019-05-12T01:11:49.963Z,6.1
2019-05-12T01:12:50.141Z,6.2
2019-05-12T01:13:50.143Z,6.4
2019-05-12T01:14:50.197Z,6.2
2019-05-12T01:15:50.319Z,6.2
2019-05-12T01:16:50.468Z,6.4
2019-05-12T01:17:50.491Z,6.2
2019-05-12T01:18:51.851Z,6.1
2019-05-12T01:19:50.631Z,6
2019-05-12T01:20:51.013Z,6.1
2019-05-12T01:21:50.898Z,6.2
2019-05-12T01:22:50.885Z,6.3
2019-05-12T01:23:56.652Z,6.1
2019-05-12T01:24:51.053Z,6.1
2019-05-12T01:25:51.086Z,6.2
2019-05-12T01:26:51.226Z,6.3
2019-05-12T01:27:51.285Z,6.2
2019-05-12T01:28:51.475Z,6.3
2019-05-12T01:29:51.424Z,6.3
2019-05-12T01:30:51.504Z,6.4
2019-05-12T01:31:51.595Z,6.5
2019-05-12T01:52:01.970Z,6.2
2019-05-12T01:53:02.073Z,6.2
2019-05-12T01:54:11.547Z,6.2
2019-05-12T01:55:02.208Z,6.1
2019-05-12T01:56:02.368Z,6.2
2019-05-12T01:57:03.573Z,6.1
2019-05-12T01:58:02.413Z,6.1
2019-05-12T01:59:02.590Z,6.1
2019-05-12T02:00:02.586Z,6.1
2019-05-12T02:01:03.117Z,6.1
2019-05-12T02:02:02.711Z,6
2019-05-12T02:03:02.857Z,6
2019-05-12T02:04:02.913Z,6
2019-05-12T02:05:03.055Z,6.1
2019-05-12T02:06:03.057Z,6
2019-05-12T02:07:03.683Z,5.9
2019-05-12T02:08:03.761Z,5.8
2019-05-12T02:09:04.134Z,5.8
2019-05-12T02:10:04.433Z,6
2019-05-12T02:11:03.663Z,5.8
2019-05-12T02:12:04.678Z,5.8
2019-05-12T02:13:04.456Z,5.8
2019-05-12T02:14:04.173Z,5.9
2019-05-12T02:15:05.229Z,6
2019-05-12T02:16:04.530Z,5.8
2019-05-12T02:17:05.906Z,5.8
2019-05-12T02:18:04.836Z,5.8
2019-05-12T02:19:05.746Z,5.7
2019-05-12T02:20:04.305Z,5.6
2019-05-12T02:21:04.445Z,5.6
2019-05-12T02:22:08.254Z,5.8
2019-05-12T02:23:04.842Z,5.8
2019-05-12T02:24:07.677Z,5.8
2019-05-12T02:25:07.453Z,6
2019-05-12T02:26:08.080Z,6
2019-05-12T02:27:05.214Z,5.9
2019-05-12T02:28:09.054Z,5.9
2019-05-12T02:29:07.786Z,5.9
2019-05-12T02:30:09.641Z,5.8
2019-05-12T02:32:05.359Z,5.4
2019-05-12T02:33:07.962Z,5.6
2019-05-12T02:34:06.781Z,5.6
2019-05-12T02:35:06.631Z,5.6
2019-05-12T02:36:07.103Z,5.5
2019-05-12T02:37:08.567Z,5.6
2019-05-12T02:38:05.769Z,5.6
2019-05-12T02:39:07.482Z,5.5
2019-05-12T02:40:08.407Z,5.4
2019-05-12T02:41:05.881Z,5.5
2019-05-12T02:42:09.283Z,5.5
2019-05-12T02:43:06.904Z,5.7
2019-05-12T02:44:06.233Z,5.6
2019-05-12T02:45:08.446Z,5.5
2019-05-12T02:46:08.305Z,5.2
2019-05-12T02:47:06.357Z,5.1
2019-05-12T02:48:07.027Z,5.2
2019-05-12T02:49:06.480Z,5.2
2019-05-12T02:50:06.553Z,5.2
2019-05-12T02:51:06.605Z,5.3
2019-05-12T02:52:06.725Z,5.4
2019-05-12T02:53:06.833Z,5.3
2019-05-12T02:54:06.862Z,5.3
2019-05-12T02:55:07.002Z,5.4
2019-05-12T02:56:06.934Z,5.3
2019-05-12T02:57:07.002Z,5.1
2019-05-12T02:58:07.131Z,4.9
2019-05-12T02:59:07.167Z,4.7
2019-05-12T03:00:07.223Z,4.7
2019-05-12T03:01:07.298Z,4.7
2019-05-12T03:02:07.368Z,4.7
2019-05-12T03:03:07.522Z,4.7
2019-05-12T03:04:07.523Z,4.7
2019-05-12T03:05:07.560Z,4.9
2019-05-12T03:06:07.663Z,5.1
2019-05-12T03:07:07.837Z,5.2
2019-05-12T03:08:07.849Z,5.3
2019-05-12T03:09:07.926Z,5.2
2019-05-12T03:10:07.973Z,5.1
2019-05-12T03:11:08.083Z,5.2
2019-05-12T03:12:08.111Z,5.3
2019-05-12T03:13:08.205Z,5.3
2019-05-12T03:14:08.500Z,5.1
2019-05-12T03:15:08.234Z,5
2019-05-12T03:22:08.767Z,5.1
2019-05-12T03:23:08.775Z,5
2019-05-12T03:24:08.831Z,4.9
2019-05-12T03:25:16.911Z,4.9
2019-05-12T03:26:08.937Z,4.8
2019-05-12T03:27:09.347Z,4.8
2019-05-12T03:28:09.553Z,4.7
2019-05-12T03:29:09.057Z,4.7
2019-05-12T03:30:11.192Z,4.8
2019-05-12T03:31:09.095Z,5
2019-05-12T03:32:09.250Z,4.8
2019-05-12T03:33:11.632Z,4.6
2019-05-12T03:34:11.257Z,4.8
2019-05-12T03:35:09.640Z,4.9
2019-05-12T03:36:10.233Z,4.8
2019-05-12T03:37:09.698Z,4.8
2019-05-12T03:38:09.382Z,4.9
2019-05-12T03:39:09.403Z,4.8
2019-05-12T03:40:09.409Z,4.8
2019-05-12T03:41:09.464Z,4.8
2019-05-12T03:42:09.487Z,4.7
2019-05-12T03:43:09.554Z,4.9
2019-05-12T03:44:09.538Z,4.9
2019-05-12T03:45:09.574Z,4.9
2019-05-12T03:46:09.662Z,5
2019-05-12T03:47:10.457Z,5
2019-05-12T03:48:09.748Z,4.9
2019-05-12T03:49:09.729Z,5
2019-05-12T03:50:09.748Z,4.8
2019-05-12T03:51:09.809Z,4.9
2019-05-12T03:52:09.828Z,4.8
2019-05-12T03:53:11.157Z,4.8
2019-05-12T03:54:09.906Z,4.8
2019-05-12T03:55:27.146Z,4.8
2019-05-12T03:56:10.000Z,4.7
2019-05-12T03:57:10.028Z,4.8
2019-05-12T03:58:10.146Z,4.8
2019-05-12T03:59:10.112Z,4.8
2019-05-12T04:00:10.195Z,4.9
2019-05-12T04:01:10.277Z,4.9
2019-05-12T04:02:10.468Z,5
2019-05-12T04:03:10.453Z,5
2019-05-12T04:04:24.095Z,5
2019-05-12T04:06:10.578Z,4.8
2019-05-12T04:07:10.578Z,4.9
2019-05-12T04:08:10.645Z,5
2019-05-12T04:09:10.708Z,5
2019-05-12T04:10:10.790Z,4.9
2019-05-12T04:11:10.785Z,5
2019-05-12T04:12:10.828Z,5
2019-05-12T04:13:10.858Z,4.8
2019-05-12T04:14:10.849Z,5
2019-05-12T04:15:10.904Z,5
2019-05-12T04:16:10.934Z,5.1
2019-05-12T04:17:10.929Z,5.1
2019-05-12T04:18:11.020Z,5.1
2019-05-12T04:20:11.050Z,5
2019-05-12T04:21:11.230Z,5.1
2019-05-12T04:22:11.128Z,5
2019-05-12T04:23:11.166Z,5
2019-05-12T04:25:14.170Z,5.1
2019-05-12T04:26:15.674Z,5.3
2019-05-12T04:27:14.635Z,5.3
2019-05-12T04:28:11.355Z,5.3
2019-05-12T04:29:11.416Z,5.2
2019-05-12T04:30:14.280Z,5.2
2019-05-12T04:31:11.555Z,5.3
2019-05-12T04:32:14.069Z,5.5
2019-05-12T04:33:11.509Z,5.5
2019-05-12T04:34:15.551Z,5.5
2019-05-12T04:35:14.422Z,5.5
2019-05-12T04:37:14.469Z,5.4
2019-05-12T04:39:14.321Z,5.3
2019-05-12T04:41:14.516Z,5.4
2019-05-12T04:42:14.830Z,5.5
2019-05-12T04:43:14.488Z,5.6
2019-05-12T04:44:15.111Z,5.5
2019-05-12T04:45:15.515Z,5.4
2019-05-12T04:46:14.435Z,5.5
2019-05-12T04:47:14.520Z,5.5
2019-05-12T04:48:14.975Z,5.6
2019-05-12T04:49:15.351Z,5.6
2019-05-12T04:50:15.164Z,5.6
2019-05-12T04:51:15.016Z,5.5
2019-05-12T04:52:15.180Z,5.4
2019-05-12T04:53:14.342Z,5.5
2019-05-12T04:54:15.166Z,5.7
2019-05-12T04:55:14.964Z,5.6
2019-05-12T04:56:19.087Z,5.5
2019-05-12T04:57:14.867Z,5.4
2019-05-12T04:58:15.532Z,5.4
2019-05-12T04:59:15.601Z,5.5
2019-05-12T05:00:15.269Z,5.5
2019-05-12T05:01:15.437Z,5.5
2019-05-12T05:02:15.184Z,5.6
2019-05-12T05:03:14.069Z,5.7
2019-05-12T05:04:15.163Z,5.6
2019-05-12T05:05:14.424Z,5.6
2019-05-12T05:06:14.780Z,5.7
2019-05-12T05:07:14.968Z,5.7
2019-05-12T05:08:14.074Z,5.6
2019-05-12T05:09:14.365Z,5.6
2019-05-12T05:10:14.474Z,5.6
2019-05-12T05:11:14.710Z,5.6
2019-05-12T05:12:13.892Z,5.7
2019-05-12T05:13:14.878Z,5.6
2019-05-12T05:14:14.225Z,5.7
2019-05-12T05:15:14.556Z,5.6
2019-05-12T05:16:14.313Z,5.7
2019-05-12T05:17:14.983Z,5.7
2019-05-12T05:18:13.471Z,5.8
2019-05-12T05:19:13.922Z,5.7
2019-05-12T05:20:13.704Z,5.8
2019-05-12T05:21:13.957Z,5.8
2019-05-12T05:22:13.733Z,5.8
2019-05-12T05:23:14.109Z,5.8
2019-05-12T05:24:14.184Z,5.8
2019-05-12T05:25:14.375Z,5.9
2019-05-12T05:26:21.890Z,5.9
2019-05-12T05:27:13.652Z,5.9
2019-05-12T05:28:14.520Z,6
2019-05-12T05:29:13.787Z,6.1
2019-05-12T05:30:14.009Z,6.1
2019-05-12T05:31:14.881Z,6.1
2019-05-12T05:32:14.083Z,6.1
2019-05-12T05:33:14.565Z,6.2
2019-05-12T05:34:14.808Z,6.2
2019-05-12T05:35:14.090Z,6.2
2019-05-12T05:36:19.532Z,6.2
2019-05-12T05:37:14.503Z,6.2
2019-05-12T05:38:18.541Z,6.2
2019-05-12T05:39:14.157Z,6.2
2019-05-12T05:40:14.352Z,6.1
2019-05-12T05:41:14.530Z,6.2
2019-05-12T05:42:14.213Z,6.2
2019-05-12T05:43:18.145Z,6.3
2019-05-12T05:44:14.273Z,6.2
2019-05-12T05:45:19.361Z,6.3
2019-05-12T05:46:14.353Z,6.4
2019-05-12T05:47:14.399Z,6.5
2019-05-12T05:48:14.521Z,6.4
2019-05-12T05:49:14.461Z,6.4
2019-05-12T05:50:18.318Z,6.4
2019-05-12T05:51:14.543Z,6.6
2019-05-12T05:52:14.589Z,6.6
2019-05-12T05:53:19.445Z,6.9
2019-05-12T05:54:14.677Z,7.1
2019-05-12T05:55:19.824Z,7
2019-05-12T05:56:18.101Z,6.9
2019-05-12T05:57:14.837Z,6.9
2019-05-12T05:58:15.490Z,6.9
2019-05-12T05:59:15.187Z,7
2019-05-12T06:00:20.296Z,7.1
2019-05-12T06:01:14.915Z,7.2
2019-05-12T06:02:15.193Z,7.1
2019-05-12T06:03:22.893Z,7
2019-05-12T06:04:15.061Z,6.9
2019-05-12T06:05:15.094Z,6.9
2019-05-12T06:06:15.436Z,6.8
2019-05-12T06:07:15.145Z,6.8
2019-05-12T06:08:20.568Z,6.9
2019-05-12T06:09:15.210Z,6.9
2019-05-12T06:10:15.254Z,6.8
2019-05-12T06:11:23.686Z,6.8
2019-05-12T06:12:15.311Z,6.8
2019-05-12T06:13:15.378Z,6.9
2019-05-12T06:14:16.193Z,6.9
2019-05-12T06:15:15.461Z,7
2019-05-12T06:16:20.311Z,7.1
2019-05-12T06:17:15.509Z,6.9
2019-05-12T06:18:15.524Z,6.9
2019-05-12T06:19:15.561Z,7
2019-05-12T06:20:15.586Z,7
2019-05-12T06:21:15.665Z,7.2
2019-05-12T06:22:18.369Z,7.1
2019-05-12T06:23:15.730Z,7
2019-05-12T06:24:19.946Z,7
2019-05-12T06:25:16.421Z,7.2
2019-05-12T06:26:20.935Z,7.4
2019-05-12T06:27:20.758Z,15.9
2019-05-12T06:28:16.139Z,7.3
2019-05-12T06:29:20.056Z,7.4
2019-05-12T06:30:16.161Z,7.3
2019-05-12T06:31:18.837Z,7.3
2019-05-12T06:32:16.234Z,7.3
2019-05-12T06:33:16.300Z,7.5
2019-05-12T06:34:20.720Z,7.3
2019-05-12T06:35:16.355Z,7.4
2019-05-12T06:36:21.827Z,7.6
2019-05-12T06:37:17.233Z,7.8
2019-05-12T06:38:16.521Z,7.7
2019-05-12T06:39:20.462Z,7.5
2019-05-12T06:40:16.516Z,7.5
2019-05-12T06:41:20.425Z,7.6
2019-05-12T06:42:17.094Z,7.6
2019-05-12T06:43:16.662Z,7.5
2019-05-12T06:44:19.313Z,7.5
2019-05-12T06:45:16.694Z,7.7
2019-05-12T06:46:20.620Z,16.2
2019-05-12T06:47:16.759Z,7.7
2019-05-12T06:48:19.181Z,7.9
2019-05-12T06:49:17.632Z,8
2019-05-12T06:50:16.862Z,8.1
2019-05-12T06:51:22.532Z,8.2
2019-05-12T06:52:16.882Z,8.4
2019-05-12T06:53:20.010Z,8.5
2019-05-12T06:54:16.946Z,8.4
2019-05-12T06:55:16.996Z,8.3
2019-05-12T06:56:19.716Z,8.4
2019-05-12T06:57:24.331Z,8.5
2019-05-12T06:58:25.900Z,8.5
2019-05-12T06:59:17.346Z,8.4
2019-05-12T07:00:17.361Z,8.3
2019-05-12T07:01:19.272Z,8.3
2019-05-12T07:02:17.243Z,8.3
2019-05-12T07:03:19.307Z,8.3
2019-05-12T07:04:17.283Z,8.3
2019-05-12T07:05:17.333Z,25.4
2019-05-12T07:06:19.602Z,8.7
2019-05-12T07:07:17.496Z,17.4
2019-05-12T07:08:26.269Z,9.1
2019-05-12T07:09:24.638Z,9.2
2019-05-12T07:10:35.460Z,9.4
2019-05-12T07:11:17.504Z,9.4
2019-05-12T07:12:17.562Z,9.4
2019-05-12T07:13:22.974Z,17.8
2019-05-12T07:14:22.275Z,9.5
2019-05-12T07:15:17.702Z,9.6
2019-05-12T07:16:22.199Z,9.5
2019-05-12T07:17:17.758Z,9.4
2019-05-12T07:18:24.030Z,9.3
2019-05-12T07:19:22.573Z,9.4
2019-05-12T07:20:18.472Z,9.7
2019-05-12T07:21:20.358Z,9.7
2019-05-12T07:22:21.824Z,9.5
2019-05-12T07:23:19.526Z,9.3
2019-05-12T07:24:18.140Z,17.7
2019-05-12T07:25:22.488Z,26
2019-05-12T07:26:19.556Z,9.2
2019-05-12T07:27:18.309Z,9.1
2019-05-12T07:28:18.331Z,9
2019-05-12T07:29:18.616Z,8.9
2019-05-12T07:30:25.441Z,9
2019-05-12T07:31:18.272Z,9
2019-05-12T07:32:21.644Z,9.1
2019-05-12T07:33:18.373Z,9
2019-05-12T07:34:18.409Z,9.1
2019-05-12T07:35:18.495Z,8.9
2019-05-12T07:36:18.521Z,9.1
2019-05-12T07:37:18.616Z,9.2
2019-05-12T07:38:21.204Z,9.4
2019-05-12T07:39:18.721Z,9.4
2019-05-12T07:40:23.797Z,9.3
2019-05-12T07:41:18.851Z,9.2
2019-05-12T07:42:22.591Z,9.2
2019-05-12T07:43:20.634Z,17.4
2019-05-12T07:44:21.921Z,8.9
2019-05-12T07:45:22.230Z,8.8
2019-05-12T07:46:19.081Z,8.8
2019-05-12T07:47:24.164Z,8.8
2019-05-12T07:48:19.144Z,8.9
2019-05-12T07:49:21.903Z,9.1
2019-05-12T07:50:20.754Z,9
2019-05-12T07:51:19.245Z,8.9
2019-05-12T07:52:19.302Z,8.8
2019-05-12T07:53:20.373Z,8.8
2019-05-12T07:54:19.382Z,8.8
2019-05-12T07:55:19.483Z,9.1
2019-05-12T07:56:24.350Z,9.3
2019-05-12T07:57:19.490Z,9.4
2019-05-12T07:58:19.742Z,9.3
2019-05-12T07:59:19.738Z,9.3
2019-05-12T08:00:21.355Z,9.2
2019-05-12T08:01:19.676Z,9.2
2019-05-12T08:02:23.050Z,17.5
2019-05-12T08:03:21.321Z,9.1
2019-05-12T08:04:19.843Z,9.1
2019-05-12T08:05:21.286Z,9.2
2019-05-12T08:06:19.777Z,9.2
2019-05-12T08:07:25.075Z,9.3
2019-05-12T08:08:20.339Z,9.5
2019-05-12T08:09:23.931Z,9.7
2019-05-12T08:10:20.297Z,10
2019-05-12T08:11:19.942Z,10.1
2019-05-12T08:12:20.892Z,10.2
2019-05-12T08:13:20.014Z,10.4
2019-05-12T08:14:25.689Z,27
2019-05-12T08:15:20.135Z,10.4
2019-05-12T08:16:25.475Z,10.3
2019-05-12T08:17:20.179Z,10.4
2019-05-12T08:18:20.217Z,10.5
2019-05-12T08:19:45.397Z,10.4
2019-05-12T08:20:20.341Z,10.2
2019-05-12T08:21:34.637Z,10.2
2019-05-12T08:22:29.145Z,10
2019-05-12T08:23:20.420Z,9.8
2019-05-12T08:24:20.490Z,10
2019-05-12T08:25:28.769Z,26.7
2019-05-12T08:26:20.571Z,18.3
2019-05-12T08:27:30.336Z,10.3
2019-05-12T08:28:25.552Z,18.6
2019-05-12T08:29:21.977Z,10.4
2019-05-12T08:30:21.003Z,10.4
2019-05-12T08:31:23.315Z,10.2
2019-05-12T08:32:20.759Z,9.9
2019-05-12T08:33:20.898Z,9.8
2019-05-12T08:34:20.889Z,9.7
2019-05-12T08:35:26.768Z,9.7
2019-05-12T08:36:23.425Z,18.2
2019-05-12T08:37:20.923Z,10.3
2019-05-12T08:38:20.973Z,10.5
2019-05-12T08:39:23.533Z,27
2019-05-12T08:40:21.709Z,10.6
2019-05-12T08:43:26.370Z,11.8
2019-05-12T08:44:33.377Z,28.2
2019-05-12T08:45:33.455Z,11.8
2019-05-12T08:46:27.460Z,11.6
2019-05-12T08:47:28.859Z,11.1
2019-05-12T08:48:26.726Z,11.1
2019-05-12T08:49:26.776Z,11.1
2019-05-12T08:50:31.391Z,10.9
2019-05-12T08:51:26.886Z,19
2019-05-12T08:52:30.442Z,10.3
2019-05-12T08:53:27.107Z,10.1
2019-05-12T08:54:27.575Z,10.1
2019-05-12T08:55:31.215Z,9.9
2019-05-12T08:56:27.158Z,9.9
2019-05-12T08:57:32.442Z,9.9
2019-05-12T08:58:33.266Z,9.8
2019-05-12T08:59:27.542Z,10.1
2019-05-12T09:00:27.267Z,18.6
2019-05-12T09:01:30.670Z,10.3
2019-05-12T09:02:27.292Z,10.3
2019-05-12T09:03:30.387Z,10.3
2019-05-12T09:04:27.422Z,10.2
2019-05-12T09:05:33.492Z,10.1
2019-05-12T09:06:27.446Z,10
2019-05-12T09:07:30.212Z,10
2019-05-12T09:08:27.509Z,9.9
2019-05-12T09:09:27.638Z,9.9
2019-05-12T09:10:27.962Z,10
2019-05-12T09:11:27.573Z,10.4
2019-05-12T09:12:27.834Z,10.9
2019-05-12T09:13:28.027Z,11.5
2019-05-12T09:14:27.694Z,11.7
2019-05-12T09:15:27.747Z,11.8
2019-05-12T09:16:28.300Z,12.2
2019-05-12T09:20:03.447Z,13.2
2019-05-12T09:20:29.831Z,13.3
2019-05-12T09:21:31.434Z,13.5
2019-05-12T09:22:34.262Z,13.2
2019-05-12T09:23:32.595Z,12.9
2019-05-12T09:24:28.053Z,12.9
2019-05-12T09:25:28.079Z,13
2019-05-12T09:26:28.721Z,13.2
2019-05-12T09:27:28.144Z,13.4
2019-05-12T09:28:28.210Z,13.3
2019-05-12T09:29:28.198Z,13.1
2019-05-12T09:30:33.558Z,28.9
2019-05-12T09:31:29.589Z,12.3
2019-05-12T09:32:28.322Z,11.9
2019-05-12T09:33:31.793Z,11.6
2019-05-12T09:34:29.297Z,11.4
2019-05-12T09:35:33.617Z,11.1
2019-05-12T09:36:28.453Z,11.1
2019-05-12T09:37:30.800Z,10.9
2019-05-12T09:38:28.565Z,10.8
2019-05-12T09:39:33.898Z,11
2019-05-12T09:40:29.167Z,11.5
2019-05-12T09:41:28.875Z,28.3
2019-05-12T09:42:30.138Z,12.4
2019-05-12T09:43:28.907Z,20.7
2019-05-12T09:44:30.495Z,13
2019-05-12T09:45:28.784Z,13.5
2019-05-12T09:46:34.046Z,29.2
2019-05-12T09:47:28.889Z,13.4
2019-05-12T09:48:28.947Z,13.3
2019-05-12T09:49:38.580Z,13.5
2019-05-12T09:50:29.496Z,13.5
2019-05-12T09:51:32.749Z,13.5
2019-05-12T09:52:29.124Z,13.5
2019-05-12T09:53:29.159Z,29.4
2019-05-12T09:54:35.043Z,13
2019-05-12T09:55:29.598Z,13
2019-05-12T09:56:29.210Z,13.1
2019-05-12T09:57:32.222Z,13.2
2019-05-12T09:58:29.401Z,12.9
2019-05-12T09:59:29.704Z,12.8
2019-05-12T10:00:30.257Z,12
2019-05-12T10:01:35.110Z,12.1
2019-05-12T10:02:29.684Z,12.3
2019-05-12T10:03:30.737Z,12.4
2019-05-12T10:04:29.826Z,12.7
2019-05-12T10:05:35.905Z,29.1
2019-05-12T10:06:29.892Z,13.6
2019-05-12T10:07:29.997Z,14.1
2019-05-12T10:08:35.521Z,14.3
2019-05-12T10:09:29.996Z,14.5
2019-05-12T10:10:35.285Z,14.6
2019-05-12T10:11:30.010Z,15.1
2019-05-12T10:12:35.273Z,30.5
2019-05-12T10:13:30.362Z,15
2019-05-12T10:14:30.164Z,14.4
2019-05-12T10:15:30.203Z,37.8
2019-05-12T10:16:30.231Z,29.9
2019-05-12T10:17:30.493Z,13.9
2019-05-12T10:18:30.294Z,13.5
2019-05-12T10:19:30.295Z,13
2019-05-12T10:20:39.432Z,12.8
2019-05-12T10:21:49.024Z,28.7
2019-05-12T10:22:35.612Z,28.5
2019-05-12T10:23:30.522Z,12.1
2019-05-12T10:24:32.351Z,12
2019-05-12T10:25:41.441Z,12
2019-05-12T10:26:30.593Z,11.9
2019-05-12T10:27:34.699Z,27.9
2019-05-12T10:28:30.582Z,44.2
2019-05-12T10:29:32.089Z,11.9
2019-05-12T10:30:30.611Z,12.1
2019-05-12T10:31:35.398Z,12
2019-05-12T10:32:30.664Z,12.1
2019-05-12T10:33:30.758Z,12.7
2019-05-12T10:34:35.623Z,13.6
2019-05-12T10:35:30.786Z,14.2
2019-05-12T10:36:33.635Z,14.3
2019-05-12T10:37:31.976Z,14.2
2019-05-12T10:38:30.981Z,13.4
2019-05-12T10:39:33.429Z,13.1
2019-05-12T10:40:31.070Z,12.9
2019-05-12T10:41:34.095Z,12.7
2019-05-12T10:42:31.112Z,13.3
2019-05-12T10:43:31.216Z,14
2019-05-12T10:44:37.224Z,14.5
2019-05-12T10:45:31.327Z,14.3
2019-05-12T10:46:31.246Z,14.7
2019-05-12T10:47:31.296Z,15.1
2019-05-12T10:48:33.708Z,15
2019-05-12T10:49:33.593Z,15.3
2019-05-12T10:50:33.794Z,15
2019-05-12T10:51:31.459Z,30.1
2019-05-12T10:52:34.907Z,14.3
2019-05-12T10:53:31.534Z,30.1
2019-05-12T10:54:31.551Z,14.9
2019-05-12T10:55:33.453Z,15.4
2019-05-12T10:56:34.550Z,15.8
2019-05-12T10:57:33.348Z,15.7
2019-05-12T10:58:43.955Z,15.8
2019-05-12T10:59:33.485Z,15.8
2019-05-12T11:00:33.726Z,15.8
2019-05-12T11:01:33.261Z,15.8
2019-05-12T11:02:37.212Z,15.5
2019-05-12T11:04:36.620Z,14.8
2019-05-12T11:05:33.865Z,15.1
2019-05-12T11:06:34.043Z,15.2
2019-05-12T11:07:34.033Z,15.5
2019-05-12T11:08:33.260Z,15.6
2019-05-12T11:09:34.497Z,30.6
2019-05-12T11:10:32.928Z,14.7
2019-05-12T11:11:41.941Z,15
2019-05-12T11:12:33.299Z,30.6
2019-05-12T11:13:33.782Z,14.8
2019-05-12T11:14:34.128Z,14.6
2019-05-12T11:15:34.206Z,22.7
2019-05-12T11:16:34.865Z,15
2019-05-12T11:17:33.514Z,15.2
2019-05-12T11:18:34.014Z,15.3
2019-05-12T11:19:33.872Z,31
2019-05-12T11:20:35.318Z,15.5
2019-05-12T11:21:38.856Z,15.2
2019-05-12T11:22:35.008Z,15.3
2019-05-12T11:23:34.438Z,15.4
2019-05-12T11:24:34.722Z,15
2019-05-12T11:25:53.328Z,14.3
2019-05-12T11:26:32.938Z,14.5
2019-05-12T11:27:34.628Z,14.8
2019-05-12T11:28:33.721Z,14.9
2019-05-12T11:29:45.515Z,14.8
2019-05-12T11:30:34.497Z,15.1
2019-05-12T11:31:41.418Z,14.7
2019-05-12T11:32:34.602Z,14.4
2019-05-12T11:33:34.100Z,22.4
2019-05-12T11:34:33.628Z,14.3
2019-05-12T11:35:33.304Z,14.1
2019-05-12T11:36:34.414Z,13.6
2019-05-12T11:37:33.794Z,13.4
2019-05-12T11:38:33.681Z,13.4
2019-05-12T11:39:36.593Z,13.5
2019-05-12T11:40:34.619Z,13.5
2019-05-12T11:41:36.130Z,13.8
2019-05-12T11:42:55.472Z,14.1
2019-05-12T11:43:33.830Z,14.4
2019-05-12T11:44:33.772Z,14.9
2019-05-12T11:45:33.957Z,15.4
2019-05-12T11:46:36.334Z,15.6
2019-05-12T11:47:36.916Z,15.9
2019-05-12T11:48:34.002Z,15.6
2019-05-12T11:49:33.826Z,15.5
2019-05-12T11:50:33.858Z,15.5
2019-05-12T11:51:34.120Z,16.3
2019-05-12T11:52:33.923Z,16.4
2019-05-12T11:53:35.000Z,16
2019-05-12T11:54:34.022Z,16.1
2019-05-12T11:55:34.874Z,16.5
2019-05-12T11:56:34.081Z,16.2
2019-05-12T11:57:40.091Z,15.6
2019-05-12T11:58:34.134Z,15.9
2019-05-12T11:59:34.273Z,16
2019-05-12T12:00:34.631Z,15.7
2019-05-12T12:01:39.297Z,15.3
2019-05-12T12:02:35.452Z,14.7
2019-05-12T12:03:34.366Z,14.2
2019-05-12T12:04:34.398Z,13.9
2019-05-12T12:05:34.410Z,14.2
2019-05-12T12:06:34.468Z,14
2019-05-12T12:07:38.835Z,13.7
2019-05-12T12:08:37.028Z,13.6
2019-05-12T12:09:34.563Z,13.8
2019-05-12T12:10:39.537Z,14.5
2019-05-12T12:11:34.645Z,15
2019-05-12T12:12:34.736Z,15.5
2019-05-12T12:13:34.746Z,15.9
2019-05-12T12:14:34.774Z,16.2
2019-05-12T12:15:35.102Z,15.9
2019-05-12T12:16:34.882Z,31.4
2019-05-12T12:17:35.702Z,16.1
2019-05-12T12:18:35.907Z,16
2019-05-12T12:19:43.366Z,15.9
2019-05-12T12:20:35.025Z,15.9
2019-05-12T12:21:35.305Z,15.8
2019-05-12T12:22:36.050Z,16
2019-05-12T12:23:40.815Z,16.3
2019-05-12T12:24:38.323Z,16.5
2019-05-12T12:25:36.342Z,16.9
2019-05-12T12:26:37.259Z,17
2019-05-12T12:27:35.438Z,16.9
2019-05-12T12:28:35.489Z,32.1
2019-05-12T12:29:35.612Z,16.7
2019-05-12T12:30:35.522Z,16.3
2019-05-12T12:31:38.828Z,15.8
2019-05-12T12:32:35.857Z,15.2
2019-05-12T12:33:38.748Z,14.6
2019-05-12T12:34:36.083Z,14.1
2019-05-12T12:35:36.379Z,14.2
2019-05-12T12:36:35.872Z,30
2019-05-12T12:37:35.842Z,14.2
2019-05-12T12:38:36.009Z,29.9
2019-05-12T12:39:35.860Z,14.2
2019-05-12T12:40:35.885Z,13.9
2019-05-12T12:41:35.965Z,13.7
2019-05-12T12:42:41.796Z,13.7
2019-05-12T12:43:36.083Z,14.1
2019-05-12T12:44:36.127Z,14.8
2019-05-12T12:45:40.214Z,15.4
2019-05-12T12:46:36.143Z,15.7
2019-05-12T12:47:44.226Z,15.7
2019-05-12T12:48:36.204Z,15.8
2019-05-12T12:49:39.811Z,16.1
2019-05-12T12:50:36.292Z,16
2019-05-12T12:51:36.283Z,16
2019-05-12T12:52:38.608Z,16.5
2019-05-12T12:53:36.332Z,16.9
2019-05-12T12:54:36.370Z,24.1
2019-05-12T12:55:37.902Z,16.1
2019-05-12T12:56:36.451Z,16.4
2019-05-12T12:57:40.144Z,16.3
2019-05-12T12:58:36.512Z,16.3
2019-05-12T12:59:36.549Z,16.5
2019-05-12T13:00:46.583Z,16.8
2019-05-12T13:01:36.606Z,16.3
2019-05-12T13:02:38.988Z,16
2019-05-12T13:03:36.712Z,15.3
2019-05-12T13:04:39.413Z,15.3
2019-05-12T13:05:36.766Z,15.4
2019-05-12T13:06:36.814Z,23.6
2019-05-12T13:07:36.822Z,16.3
2019-05-12T13:08:36.892Z,16.3
2019-05-12T13:09:36.943Z,16.2
2019-05-12T13:10:40.403Z,15.7
2019-05-12T13:11:37.097Z,15
2019-05-12T13:12:37.065Z,14.8
2019-05-12T13:13:37.076Z,14.8
2019-05-12T13:14:40.103Z,15.1
2019-05-12T13:15:37.423Z,15.6
2019-05-12T13:16:37.218Z,16.1
2019-05-12T13:17:41.639Z,16.2
2019-05-12T13:18:37.288Z,15.7
2019-05-12T13:19:37.311Z,15.2
2019-05-12T13:20:37.362Z,14.8
2019-05-12T13:21:37.442Z,14.4
2019-05-12T13:22:37.412Z,14.6
2019-05-12T13:23:40.835Z,14.4
2019-05-12T13:24:37.509Z,30
2019-05-12T13:25:38.712Z,14.9
2019-05-12T13:26:37.653Z,15.3
2019-05-12T13:27:37.666Z,15.9
2019-05-12T13:28:37.676Z,16.3
2019-05-12T13:29:39.590Z,16.5
2019-05-12T13:30:46.004Z,16.6
2019-05-12T13:31:40.927Z,16.6
2019-05-12T13:32:38.164Z,16.3
2019-05-12T13:33:38.463Z,16.7
2019-05-12T13:34:38.857Z,16.3
2019-05-12T13:35:38.162Z,15.8
2019-05-12T13:36:39.353Z,16
2019-05-12T13:37:38.522Z,16
2019-05-12T13:38:40.371Z,24.1
2019-05-12T13:39:38.378Z,16.5
2019-05-12T13:40:39.395Z,16.8
2019-05-12T13:41:38.309Z,16.4
2019-05-12T13:42:38.755Z,16.1
2019-05-12T13:43:40.604Z,16.2
2019-05-12T13:44:40.445Z,16.2
2019-05-12T13:45:38.462Z,16.7
2019-05-12T13:46:38.471Z,17
2019-05-12T13:47:39.954Z,17
2019-05-12T13:48:38.552Z,16.3
2019-05-12T13:49:42.784Z,15.9
2019-05-12T13:50:38.666Z,16.2
2019-05-12T13:51:42.952Z,16.2
2019-05-12T13:52:38.724Z,15.6
2019-05-12T13:53:40.203Z,22.9
2019-05-12T13:54:38.760Z,15.1
2019-05-12T13:55:39.221Z,15.4
2019-05-12T13:56:38.799Z,15.5
2019-05-12T13:57:43.825Z,15.2
2019-05-12T13:58:42.921Z,14.5
2019-05-12T13:59:39.040Z,14.3
2019-05-12T14:00:41.338Z,30
2019-05-12T14:01:40.410Z,21.8
2019-05-12T14:02:40.288Z,13.8
2019-05-12T14:03:44.702Z,14
2019-05-12T14:04:40.320Z,14.3
2019-05-12T14:06:14.368Z,14.3
2019-05-12T14:06:39.598Z,29.9
2019-05-12T14:07:49.929Z,14.2
2019-05-12T14:07:49.929Z,29.9
2019-05-12T14:08:40.356Z,14.2
2019-05-12T14:08:40.515Z,14.5
2019-05-12T14:09:14.862Z,14.5
2019-05-12T14:10:24.307Z,14.9
2019-05-12T14:10:44.356Z,15.4
2019-05-12T14:11:39.401Z,23.3
2019-05-12T14:12:39.481Z,15.7
2019-05-12T14:13:39.945Z,16
2019-05-12T14:14:40.589Z,15.9
2019-05-12T14:15:39.568Z,16